Date,TemperatureHighF,TemperatureAvgF,TemperatureLowF,DewpointHighF,DewpointAvgF,DewpointLowF,HumidityHigh,HumidityAvg,HumidityLow,PressureMaxIn,PressureMinIn,WindSpeedMaxMPH,WindSpeedAvgMPH,GustSpeedMaxMPH,PrecipitationSumIn
2013-3-1,75.4,54.8,48.2,24.5,21.7,16.6,38,28,14,29.91,29.80,11,4,11,0.00
2013-3-2,66.9,47.7,39.7,27.4,19.4,11.8,61,34,16,29.91,29.83,19,4,19,0.00
2013-3-3,49.5,42.4,35.2,21.8,17.0,12.5,54,37,25,30.03,29.88,17,4,17,0.00
2013-3-4,72.1,49.5,34.9,31.6,18.9,10.8,52,33,15,30.12,30.00,12,2,12,0.00
2013-3-5,81.0,61.6,43.5,45.3,30.3,20.8,52,33,13,30.06,29.80,17,4,17,0.00
2013-3-6,69.3,53.7,44.8,57.3,23.8,12.4,87,34,16,30.03,29.74,22,6,22,0.00
2013-3-7,69.4,50.5,37.6,39.1,23.9,16.6,65,38,16,30.15,30.03,8,2,10,0.00
2013-3-8,79.3,54.3,41.7,40.5,33.9,19.6,81,52,13,30.12,30.06,13,2,13,0.00
2013-3-9,74.7,55.9,45.0,47.7,37.3,26.3,89,55,19,30.18,30.09,14,2,14,0.00
2013-3-10,79.3,62.7,50.5,55.0,42.3,34.3,90,52,21,30.12,30.03,8,1,10,0.00
2013-3-11,78.4,66.7,55.9,56.7,45.1,35.9,89,50,23,30.03,29.80,14,2,14,0.00
2013-3-12,69.8,65.1,54.5,67.2,49.6,28.7,100,61,24,29.91,29.74,12,3,12,0.00
2013-3-13,77.0,60.0,49.6,34.1,22.3,12.6,46,26,14,30.09,29.91,14,3,14,0.00
2013-3-14,68.5,52.7,43.3,27.3,16.5,9.0,49,25,16,30.21,30.06,11,2,11,0.00
2013-3-15,79.2,57.3,40.8,28.3,22.4,13.9,54,30,13,30.18,30.00,10,1,10,0.00
2013-3-16,86.2,65.2,49.1,39.6,28.6,20.8,68,29,12,30.06,29.88,12,2,12,0.00
2013-3-17,83.3,65.8,51.4,48.2,31.0,21.5,80,31,12,30.03,29.88,11,2,11,0.00
2013-3-18,82.6,70.7,63.0,53.1,44.8,37.5,67,41,23,29.94,29.77,13,2,13,0.00
2013-3-19,88.0,71.2,63.3,53.2,42.1,35.0,61,37,19,29.91,29.77,17,2,17,0.00
2013-3-20,66.9,60.8,51.8,52.5,40.2,29.6,89,50,29,29.91,29.74,17,2,17,0.00
2013-3-21,74.5,55.7,42.8,49.9,26.4,12.4,96,40,14,29.85,29.74,14,2,14,0.00
2013-3-22,67.6,56.4,48.6,38.1,23.5,16.5,49,29,18,29.97,29.83,13,3,13,0.00
2013-3-23,69.3,61.0,55.6,67.1,55.1,38.1,100,83,49,29.91,29.71,15,1,15,0.00
2013-3-24,82.9,71.6,61.3,72.3,58.9,43.5,100,71,26,29.71,29.41,15,4,15,0.00
2013-3-25,75.7,60.2,51.3,52.6,24.6,12.4,62,28,14,29.94,29.50,22,4,22,0.00
2013-3-26,68.0,49.7,40.8,21.9,14.4,9.4,43,25,16,30.15,29.94,17,3,17,0.00
2013-3-27,73.8,49.6,37.8,24.3,18.1,12.7,46,31,14,30.21,30.09,13,2,13,0.00
2013-3-28,81.7,54.5,42.3,32.1,23.4,15.5,49,32,13,30.21,30.09,11,2,11,0.00
2013-3-29,86.4,59.0,45.5,36.0,28.1,17.9,64,36,12,30.24,30.09,10,1,10,0.00
2013-3-30,85.3,64.1,48.4,39.3,29.5,19.6,58,31,12,30.15,30.00,13,2,13,0.00
2013-3-31,83.8,69.7,59.2,42.9,34.5,26.5,47,29,17,30.03,29.85,14,3,14,0.00